sensor_id;sensor_type;location;lat;lon;timestamp;P1;durP1;ratioP1;P2;durP2;ratioP2
44564;SDS011;30275;51.822;-0.326;2023-01-04T00:01:15;18.98;;;3.20;;
44564;SDS011;30275;51.822;-0.326;2023-01-04T00:03:42;14.68;;;3.35;;
44564;SDS011;30275;51.822;-0.326;2023-01-04T00:06:12;8.43;;;2.55;;
44564;SDS011;30275;51.822;-0.326;2023-01-04T00:08:39;11.53;;;2.60;;
44564;SDS011;30275;51.822;-0.326;2023-01-04T00:11:12;13.98;;;3.45;;
44564;SDS011;30275;51.822;-0.326;2023-01-04T00:13:46;11.70;;;2.78;;
44564;SDS011;30275;51.822;-0.326;2023-01-04T00:16:15;16.85;;;2.78;;
44564;SDS011;30275;51.822;-0.326;2023-01-04T00:18:42;8.98;;;2.22;;
44564;SDS011;30275;51.822;-0.326;2023-01-04T00:21:13;11.88;;;2.38;;
44564;SDS011;30275;51.822;-0.326;2023-01-04T00:23:40;13.25;;;4.05;;
44564;SDS011;30275;51.822;-0.326;2023-01-04T00:26:10;9.88;;;3.00;;
44564;SDS011;30275;51.822;-0.326;2023-01-04T00:28:37;9.35;;;2.50;;
44564;SDS011;30275;51.822;-0.326;2023-01-04T00:31:04;12.60;;;3.65;;
44564;SDS011;30275;51.822;-0.326;2023-01-04T00:33:31;9.02;;;2.90;;
44564;SDS011;30275;51.822;-0.326;2023-01-04T00:38:29;15.05;;;3.58;;
44564;SDS011;30275;51.822;-0.326;2023-01-04T00:40:56;12.25;;;2.55;;
44564;SDS011;30275;51.822;-0.326;2023-01-04T00:43:22;9.07;;;2.58;;
44564;SDS011;30275;51.822;-0.326;2023-01-04T00:45:47;10.70;;;2.70;;
44564;SDS011;30275;51.822;-0.326;2023-01-04T00:48:13;9.70;;;3.13;;
44564;SDS011;30275;51.822;-0.326;2023-01-04T00:50:38;13.43;;;2.20;;
44564;SDS011;30275;51.822;-0.326;2023-01-04T00:53:04;16.83;;;3.28;;
44564;SDS011;30275;51.822;-0.326;2023-01-04T00:55:30;10.82;;;3.40;;
44564;SDS011;30275;51.822;-0.326;2023-01-04T00:57:55;12.90;;;3.03;;
44564;SDS011;30275;51.822;-0.326;2023-01-04T01:00:22;17.67;;;3.65;;
44564;SDS011;30275;51.822;-0.326;2023-01-04T01:02:48;11.02;;;2.67;;
44564;SDS011;30275;51.822;-0.326;2023-01-04T01:05:14;8.88;;;1.90;;
44564;SDS011;30275;51.822;-0.326;2023-01-04T01:07:39;8.70;;;2.45;;
44564;SDS011;30275;51.822;-0.326;2023-01-04T01:10:05;8.65;;;2.63;;
44564;SDS011;30275;51.822;-0.326;2023-01-04T01:12:31;8.00;;;1.70;;
44564;SDS011;30275;51.822;-0.326;2023-01-04T01:14:56;11.68;;;3.25;;
44564;SDS011;30275;51.822;-0.326;2023-01-04T01:17:22;14.00;;;3.03;;
44564;SDS011;30275;51.822;-0.326;2023-01-04T01:19:48;5.03;;;1.63;;
44564;SDS011;30275;51.822;-0.326;2023-01-04T01:22:13;11.40;;;2.20;;
44564;SDS011;30275;51.822;-0.326;2023-01-04T01:24:39;10.20;;;1.80;;
44564;SDS011;30275;51.822;-0.326;2023-01-04T01:27:05;5.53;;;1.70;;
44564;SDS011;30275;51.822;-0.326;2023-01-04T01:29:30;10.68;;;2.35;;
44564;SDS011;30275;51.822;-0.326;2023-01-04T01:31:56;5.22;;;1.83;;
44564;SDS011;30275;51.822;-0.326;2023-01-04T01:34:21;11.32;;;2.75;;
44564;SDS011;30275;51.822;-0.326;2023-01-04T01:36:47;11.45;;;2.42;;
44564;SDS011;30275;51.822;-0.326;2023-01-04T01:39:13;11.75;;;2.30;;
44564;SDS011;30275;51.822;-0.326;2023-01-04T01:41:39;10.32;;;2.35;;
44564;SDS011;30275;51.822;-0.326;2023-01-04T01:47:14;9.13;;;2.30;;
44564;SDS011;30275;51.822;-0.326;2023-01-04T01:49:47;7.10;;;2.10;;
44564;SDS011;30275;51.822;-0.326;2023-01-04T01:52:17;9.10;;;3.05;;
44564;SDS011;30275;51.822;-0.326;2023-01-04T01:54:51;11.13;;;2.75;;
44564;SDS011;30275;51.822;-0.326;2023-01-04T01:57:22;7.20;;;1.77;;
44564;SDS011;30275;51.822;-0.326;2023-01-04T01:59:51;5.88;;;2.10;;
44564;SDS011;30275;51.822;-0.326;2023-01-04T02:02:20;7.57;;;1.65;;
44564;SDS011;30275;51.822;-0.326;2023-01-04T02:04:47;6.20;;;1.98;;
44564;SDS011;30275;51.822;-0.326;2023-01-04T02:07:16;5.95;;;2.38;;
44564;SDS011;30275;51.822;-0.326;2023-01-04T02:09:45;11.82;;;1.92;;
44564;SDS011;30275;51.822;-0.326;2023-01-04T02:12:11;8.77;;;2.63;;
44564;SDS011;30275;51.822;-0.326;2023-01-04T02:14:38;8.52;;;2.80;;
44564;SDS011;30275;51.822;-0.326;2023-01-04T02:17:07;8.70;;;2.25;;
44564;SDS011;30275;51.822;-0.326;2023-01-04T02:19:52;10.77;;;2.63;;
44564;SDS011;30275;51.822;-0.326;2023-01-04T02:28:19;11.25;;;2.75;;
44564;SDS011;30275;51.822;-0.326;2023-01-04T02:36:33;9.30;;;1.95;;
44564;SDS011;30275;51.822;-0.326;2023-01-04T02:41:49;9.32;;;2.80;;
44564;SDS011;30275;51.822;-0.326;2023-01-04T02:44:30;13.30;;;5.20;;
44564;SDS011;30275;51.822;-0.326;2023-01-04T02:47:28;19.15;;;3.40;;
44564;SDS011;30275;51.822;-0.326;2023-01-04T02:50:19;12.80;;;3.78;;
44564;SDS011;30275;51.822;-0.326;2023-01-04T02:53:14;12.88;;;2.60;;
44564;SDS011;30275;51.822;-0.326;2023-01-04T03:10:24;12.30;;;4.75;;
44564;SDS011;30275;51.822;-0.326;2023-01-04T03:13:00;11.13;;;2.60;;
44564;SDS011;30275;51.822;-0.326;2023-01-04T03:15:35;13.75;;;3.67;;
44564;SDS011;30275;51.822;-0.326;2023-01-04T03:18:07;10.20;;;3.20;;
44564;SDS011;30275;51.822;-0.326;2023-01-04T03:20:39;8.50;;;2.28;;
44564;SDS011;30275;51.822;-0.326;2023-01-04T03:23:07;12.60;;;3.42;;
44564;SDS011;30275;51.822;-0.326;2023-01-04T03:26:08;10.02;;;2.22;;
44564;SDS011;30275;51.822;-0.326;2023-01-04T03:28:56;11.32;;;3.13;;
44564;SDS011;30275;51.822;-0.326;2023-01-04T03:31:51;10.77;;;2.80;;
44564;SDS011;30275;51.822;-0.326;2023-01-04T03:34:39;10.57;;;2.30;;
44564;SDS011;30275;51.822;-0.326;2023-01-04T03:37:38;9.00;;;2.33;;
44564;SDS011;30275;51.822;-0.326;2023-01-04T03:40:10;11.10;;;2.88;;
44564;SDS011;30275;51.822;-0.326;2023-01-04T03:45:57;8.77;;;2.67;;
44564;SDS011;30275;51.822;-0.326;2023-01-04T03:48:48;10.20;;;2.65;;
44564;SDS011;30275;51.822;-0.326;2023-01-04T03:51:16;7.53;;;2.42;;
44564;SDS011;30275;51.822;-0.326;2023-01-04T03:53:55;13.65;;;2.90;;
44564;SDS011;30275;51.822;-0.326;2023-01-04T03:56:35;7.28;;;2.22;;
44564;SDS011;30275;51.822;-0.326;2023-01-04T03:59:05;6.50;;;1.83;;
44564;SDS011;30275;51.822;-0.326;2023-01-04T04:01:33;7.80;;;2.05;;
44564;SDS011;30275;51.822;-0.326;2023-01-04T04:03:59;7.57;;;2.05;;
44564;SDS011;30275;51.822;-0.326;2023-01-04T04:06:44;3.38;;;1.33;;
44564;SDS011;30275;51.822;-0.326;2023-01-04T04:09:28;13.20;;;2.78;;
44564;SDS011;30275;51.822;-0.326;2023-01-04T04:11:54;11.65;;;2.55;;
44564;SDS011;30275;51.822;-0.326;2023-01-04T04:14:19;8.65;;;1.95;;
44564;SDS011;30275;51.822;-0.326;2023-01-04T04:16:45;6.72;;;1.60;;
44564;SDS011;30275;51.822;-0.326;2023-01-04T04:19:10;3.88;;;1.98;;
44564;SDS011;30275;51.822;-0.326;2023-01-04T04:21:36;13.80;;;3.08;;
44564;SDS011;30275;51.822;-0.326;2023-01-04T04:24:02;6.85;;;1.60;;
44564;SDS011;30275;51.822;-0.326;2023-01-04T04:26:29;4.97;;;1.67;;
44564;SDS011;30275;51.822;-0.326;2023-01-04T04:28:54;7.20;;;1.73;;
44564;SDS011;30275;51.822;-0.326;2023-01-04T04:31:20;4.78;;;2.15;;
44564;SDS011;30275;51.822;-0.326;2023-01-04T04:33:46;6.30;;;2.00;;
44564;SDS011;30275;51.822;-0.326;2023-01-04T04:36:11;3.20;;;1.13;;
44564;SDS011;30275;51.822;-0.326;2023-01-04T04:38:37;6.50;;;1.38;;
44564;SDS011;30275;51.822;-0.326;2023-01-04T04:41:09;4.38;;;1.38;;
44564;SDS011;30275;51.822;-0.326;2023-01-04T04:43:56;3.95;;;1.35;;
44564;SDS011;30275;51.822;-0.326;2023-01-04T04:46:22;4.15;;;1.30;;
44564;SDS011;30275;51.822;-0.326;2023-01-04T04:48:48;4.65;;;1.40;;
44564;SDS011;30275;51.822;-0.326;2023-01-04T04:51:14;3.70;;;1.30;;
44564;SDS011;30275;51.822;-0.326;2023-01-04T04:53:40;4.20;;;1.30;;
44564;SDS011;30275;51.822;-0.326;2023-01-04T04:56:06;5.95;;;1.33;;
44564;SDS011;30275;51.822;-0.326;2023-01-04T04:58:32;4.65;;;1.35;;
44564;SDS011;30275;51.822;-0.326;2023-01-04T05:00:58;2.38;;;0.77;;
44564;SDS011;30275;51.822;-0.326;2023-01-04T05:03:23;2.83;;;0.80;;
44564;SDS011;30275;51.822;-0.326;2023-01-04T05:05:49;1.92;;;0.85;;
44564;SDS011;30275;51.822;-0.326;2023-01-04T05:08:15;4.68;;;0.93;;
44564;SDS011;30275;51.822;-0.326;2023-01-04T05:10:40;3.53;;;1.25;;
44564;SDS011;30275;51.822;-0.326;2023-01-04T05:13:06;3.75;;;1.08;;
44564;SDS011;30275;51.822;-0.326;2023-01-04T05:15:44;1.40;;;0.82;;
44564;SDS011;30275;51.822;-0.326;2023-01-04T05:18:12;3.00;;;0.90;;
44564;SDS011;30275;51.822;-0.326;2023-01-04T05:20:39;5.32;;;0.75;;
44564;SDS011;30275;51.822;-0.326;2023-01-04T05:23:05;3.10;;;1.05;;
44564;SDS011;30275;51.822;-0.326;2023-01-04T05:25:32;1.92;;;0.88;;
44564;SDS011;30275;51.822;-0.326;2023-01-04T05:27:58;5.22;;;1.70;;
44564;SDS011;30275;51.822;-0.326;2023-01-04T05:30:24;3.85;;;1.10;;
44564;SDS011;30275;51.822;-0.326;2023-01-04T05:33:09;3.30;;;1.35;;
44564;SDS011;30275;51.822;-0.326;2023-01-04T05:35:35;4.43;;;1.50;;
44564;SDS011;30275;51.822;-0.326;2023-01-04T05:38:01;4.32;;;1.20;;
44564;SDS011;30275;51.822;-0.326;2023-01-04T05:40:27;4.20;;;1.20;;
44564;SDS011;30275;51.822;-0.326;2023-01-04T05:42:53;1.38;;;0.70;;
44564;SDS011;30275;51.822;-0.326;2023-01-04T05:45:19;6.28;;;1.20;;
44564;SDS011;30275;51.822;-0.326;2023-01-04T05:47:47;4.25;;;1.52;;
44564;SDS011;30275;51.822;-0.326;2023-01-04T05:50:14;5.22;;;1.15;;
44564;SDS011;30275;51.822;-0.326;2023-01-04T05:52:40;12.60;;;3.47;;
44564;SDS011;30275;51.822;-0.326;2023-01-04T05:55:06;6.45;;;1.75;;
44564;SDS011;30275;51.822;-0.326;2023-01-04T05:57:32;6.78;;;1.35;;
44564;SDS011;30275;51.822;-0.326;2023-01-04T05:59:57;5.68;;;1.55;;
44564;SDS011;30275;51.822;-0.326;2023-01-04T06:02:27;3.70;;;1.10;;
44564;SDS011;30275;51.822;-0.326;2023-01-04T06:04:54;6.53;;;2.10;;
44564;SDS011;30275;51.822;-0.326;2023-01-04T06:07:20;5.85;;;1.73;;
44564;SDS011;30275;51.822;-0.326;2023-01-04T06:09:45;4.85;;;2.20;;
44564;SDS011;30275;51.822;-0.326;2023-01-04T06:12:11;3.10;;;1.20;;
44564;SDS011;30275;51.822;-0.326;2023-01-04T06:14:37;7.10;;;1.77;;
44564;SDS011;30275;51.822;-0.326;2023-01-04T06:17:04;3.35;;;1.30;;
44564;SDS011;30275;51.822;-0.326;2023-01-04T06:19:30;6.97;;;2.22;;
44564;SDS011;30275;51.822;-0.326;2023-01-04T06:21:56;12.13;;;2.05;;
44564;SDS011;30275;51.822;-0.326;2023-01-04T06:24:21;6.95;;;1.40;;
44564;SDS011;30275;51.822;-0.326;2023-01-04T06:26:47;6.70;;;1.40;;
44564;SDS011;30275;51.822;-0.326;2023-01-04T06:29:13;6.68;;;1.42;;
44564;SDS011;30275;51.822;-0.326;2023-01-04T06:31:39;4.22;;;1.65;;
44564;SDS011;30275;51.822;-0.326;2023-01-04T06:34:05;10.57;;;2.53;;
44564;SDS011;30275;51.822;-0.326;2023-01-04T06:36:30;10.18;;;2.28;;
44564;SDS011;30275;51.822;-0.326;2023-01-04T06:38:56;6.35;;;1.52;;
44564;SDS011;30275;51.822;-0.326;2023-01-04T06:41:22;6.90;;;2.05;;
44564;SDS011;30275;51.822;-0.326;2023-01-04T06:43:48;7.13;;;1.70;;
44564;SDS011;30275;51.822;-0.326;2023-01-04T06:46:14;12.05;;;2.90;;
44564;SDS011;30275;51.822;-0.326;2023-01-04T06:48:40;8.18;;;2.05;;
44564;SDS011;30275;51.822;-0.326;2023-01-04T06:51:05;7.13;;;2.42;;
44564;SDS011;30275;51.822;-0.326;2023-01-04T06:53:31;6.45;;;1.98;;
44564;SDS011;30275;51.822;-0.326;2023-01-04T06:55:57;11.43;;;2.22;;
44564;SDS011;30275;51.822;-0.326;2023-01-04T06:58:23;9.88;;;2.20;;
44564;SDS011;30275;51.822;-0.326;2023-01-04T07:00:52;5.80;;;1.88;;
44564;SDS011;30275;51.822;-0.326;2023-01-04T07:03:19;9.75;;;2.35;;
44564;SDS011;30275;51.822;-0.326;2023-01-04T07:05:44;9.45;;;1.83;;
44564;SDS011;30275;51.822;-0.326;2023-01-04T07:08:10;6.00;;;1.95;;
44564;SDS011;30275;51.822;-0.326;2023-01-04T07:10:36;11.50;;;1.80;;
44564;SDS011;30275;51.822;-0.326;2023-01-04T07:13:02;7.15;;;1.17;;
44564;SDS011;30275;51.822;-0.326;2023-01-04T07:15:28;4.22;;;1.40;;
44564;SDS011;30275;51.822;-0.326;2023-01-04T07:17:54;3.03;;;0.80;;
44564;SDS011;30275;51.822;-0.326;2023-01-04T07:20:20;5.80;;;1.70;;
44564;SDS011;30275;51.822;-0.326;2023-01-04T07:22:45;3.45;;;1.00;;
44564;SDS011;30275;51.822;-0.326;2023-01-04T07:25:11;6.32;;;1.58;;
44564;SDS011;30275;51.822;-0.326;2023-01-04T07:27:36;6.85;;;1.08;;
44564;SDS011;30275;51.822;-0.326;2023-01-04T07:30:02;8.43;;;1.55;;
44564;SDS011;30275;51.822;-0.326;2023-01-04T07:32:28;3.22;;;1.30;;
44564;SDS011;30275;51.822;-0.326;2023-01-04T07:34:54;2.22;;;0.88;;
44564;SDS011;30275;51.822;-0.326;2023-01-04T07:37:19;4.43;;;0.70;;
44564;SDS011;30275;51.822;-0.326;2023-01-04T07:39:45;1.90;;;0.60;;
44564;SDS011;30275;51.822;-0.326;2023-01-04T07:42:12;2.17;;;0.60;;
44564;SDS011;30275;51.822;-0.326;2023-01-04T07:44:38;1.48;;;0.65;;
44564;SDS011;30275;51.822;-0.326;2023-01-04T07:47:04;3.03;;;0.95;;
44564;SDS011;30275;51.822;-0.326;2023-01-04T07:49:30;6.63;;;1.30;;
44564;SDS011;30275;51.822;-0.326;2023-01-04T07:51:55;7.65;;;2.33;;
44564;SDS011;30275;51.822;-0.326;2023-01-04T07:54:21;8.63;;;1.92;;
44564;SDS011;30275;51.822;-0.326;2023-01-04T07:56:50;5.07;;;2.42;;
44564;SDS011;30275;51.822;-0.326;2023-01-04T07:59:17;3.95;;;1.88;;
44564;SDS011;30275;51.822;-0.326;2023-01-04T08:01:44;10.85;;;3.30;;
44564;SDS011;30275;51.822;-0.326;2023-01-04T08:04:10;11.57;;;2.05;;
44564;SDS011;30275;51.822;-0.326;2023-01-04T08:06:37;10.07;;;2.95;;
44564;SDS011;30275;51.822;-0.326;2023-01-04T08:09:03;7.18;;;1.75;;
44564;SDS011;30275;51.822;-0.326;2023-01-04T08:11:29;13.45;;;2.20;;
44564;SDS011;30275;51.822;-0.326;2023-01-04T08:13:55;14.82;;;2.55;;
44564;SDS011;30275;51.822;-0.326;2023-01-04T08:16:25;12.23;;;3.60;;
44564;SDS011;30275;51.822;-0.326;2023-01-04T08:18:55;13.63;;;3.03;;
44564;SDS011;30275;51.822;-0.326;2023-01-04T08:21:22;12.32;;;3.00;;
44564;SDS011;30275;51.822;-0.326;2023-01-04T08:23:48;18.58;;;2.88;;
44564;SDS011;30275;51.822;-0.326;2023-01-04T08:26:14;15.02;;;3.92;;
44564;SDS011;30275;51.822;-0.326;2023-01-04T08:28:40;12.32;;;3.25;;
44564;SDS011;30275;51.822;-0.326;2023-01-04T08:31:07;17.40;;;3.42;;
44564;SDS011;30275;51.822;-0.326;2023-01-04T08:33:36;16.13;;;3.92;;
44564;SDS011;30275;51.822;-0.326;2023-01-04T08:38:45;16.40;;;3.90;;
44564;SDS011;30275;51.822;-0.326;2023-01-04T08:41:12;18.67;;;3.45;;
44564;SDS011;30275;51.822;-0.326;2023-01-04T08:43:38;13.80;;;4.43;;
44564;SDS011;30275;51.822;-0.326;2023-01-04T08:46:04;10.80;;;3.17;;
44564;SDS011;30275;51.822;-0.326;2023-01-04T08:48:30;17.77;;;5.40;;
44564;SDS011;30275;51.822;-0.326;2023-01-04T08:50:58;12.30;;;2.85;;
44564;SDS011;30275;51.822;-0.326;2023-01-04T08:53:25;15.55;;;3.53;;
44564;SDS011;30275;51.822;-0.326;2023-01-04T08:55:51;17.50;;;3.85;;
44564;SDS011;30275;51.822;-0.326;2023-01-04T08:58:17;21.98;;;3.58;;
44564;SDS011;30275;51.822;-0.326;2023-01-04T09:00:43;18.05;;;3.80;;
44564;SDS011;30275;51.822;-0.326;2023-01-04T09:03:08;17.75;;;3.28;;
44564;SDS011;30275;51.822;-0.326;2023-01-04T09:05:34;21.52;;;3.70;;
44564;SDS011;30275;51.822;-0.326;2023-01-04T09:08:00;15.70;;;4.43;;
44564;SDS011;30275;51.822;-0.326;2023-01-04T09:10:25;18.02;;;4.75;;
44564;SDS011;30275;51.822;-0.326;2023-01-04T09:12:51;16.20;;;3.00;;
44564;SDS011;30275;51.822;-0.326;2023-01-04T09:15:17;22.17;;;4.18;;
44564;SDS011;30275;51.822;-0.326;2023-01-04T09:17:43;16.42;;;3.40;;
44564;SDS011;30275;51.822;-0.326;2023-01-04T09:20:09;21.13;;;5.55;;
44564;SDS011;30275;51.822;-0.326;2023-01-04T09:22:35;15.30;;;4.38;;
44564;SDS011;30275;51.822;-0.326;2023-01-04T09:25:00;12.80;;;3.28;;
44564;SDS011;30275;51.822;-0.326;2023-01-04T09:27:26;16.08;;;4.35;;
44564;SDS011;30275;51.822;-0.326;2023-01-04T09:29:52;20.48;;;3.97;;
44564;SDS011;30275;51.822;-0.326;2023-01-04T09:32:18;25.00;;;4.47;;
44564;SDS011;30275;51.822;-0.326;2023-01-04T09:34:44;20.98;;;3.65;;
44564;SDS011;30275;51.822;-0.326;2023-01-04T09:37:09;12.88;;;4.03;;
44564;SDS011;30275;51.822;-0.326;2023-01-04T09:39:35;16.88;;;3.78;;
44564;SDS011;30275;51.822;-0.326;2023-01-04T09:42:01;19.65;;;4.95;;
44564;SDS011;30275;51.822;-0.326;2023-01-04T09:44:34;16.83;;;4.22;;
44564;SDS011;30275;51.822;-0.326;2023-01-04T09:47:07;14.90;;;3.25;;
44564;SDS011;30275;51.822;-0.326;2023-01-04T09:49:40;13.07;;;2.95;;
44564;SDS011;30275;51.822;-0.326;2023-01-04T09:52:13;14.13;;;3.45;;
44564;SDS011;30275;51.822;-0.326;2023-01-04T09:54:48;20.42;;;3.72;;
44564;SDS011;30275;51.822;-0.326;2023-01-04T09:57:25;22.08;;;4.90;;
44564;SDS011;30275;51.822;-0.326;2023-01-04T09:59:54;17.05;;;3.55;;
44564;SDS011;30275;51.822;-0.326;2023-01-04T10:02:28;15.07;;;3.10;;
44564;SDS011;30275;51.822;-0.326;2023-01-04T10:05:04;13.48;;;3.38;;
44564;SDS011;30275;51.822;-0.326;2023-01-04T10:07:31;15.52;;;4.95;;
44564;SDS011;30275;51.822;-0.326;2023-01-04T10:09:58;15.95;;;3.42;;
44564;SDS011;30275;51.822;-0.326;2023-01-04T10:12:42;19.02;;;3.92;;
44564;SDS011;30275;51.822;-0.326;2023-01-04T10:15:31;20.92;;;3.75;;
44564;SDS011;30275;51.822;-0.326;2023-01-04T10:18:10;18.10;;;3.95;;
44564;SDS011;30275;51.822;-0.326;2023-01-04T10:26:16;15.00;;;4.00;;
44564;SDS011;30275;51.822;-0.326;2023-01-04T10:34:02;15.05;;;4.22;;
44564;SDS011;30275;51.822;-0.326;2023-01-04T10:36:40;18.38;;;3.75;;
44564;SDS011;30275;51.822;-0.326;2023-01-04T10:39:17;26.45;;;6.43;;
44564;SDS011;30275;51.822;-0.326;2023-01-04T10:44:24;16.35;;;3.85;;
44564;SDS011;30275;51.822;-0.326;2023-01-04T10:47:10;20.70;;;4.10;;
44564;SDS011;30275;51.822;-0.326;2023-01-04T10:49:58;10.40;;;2.95;;
44564;SDS011;30275;51.822;-0.326;2023-01-04T10:52:29;14.93;;;3.05;;
44564;SDS011;30275;51.822;-0.326;2023-01-04T10:55:04;15.52;;;4.07;;
44564;SDS011;30275;51.822;-0.326;2023-01-04T10:57:35;12.82;;;2.92;;
44564;SDS011;30275;51.822;-0.326;2023-01-04T11:00:07;23.17;;;4.57;;
44564;SDS011;30275;51.822;-0.326;2023-01-04T11:08:33;10.82;;;3.30;;
44564;SDS011;30275;51.822;-0.326;2023-01-04T11:11:10;18.30;;;3.75;;
44564;SDS011;30275;51.822;-0.326;2023-01-04T11:13:40;25.67;;;4.13;;
44564;SDS011;30275;51.822;-0.326;2023-01-04T11:16:06;17.02;;;4.65;;
44564;SDS011;30275;51.822;-0.326;2023-01-04T11:18:32;20.77;;;4.13;;
44564;SDS011;30275;51.822;-0.326;2023-01-04T11:21:02;17.55;;;4.40;;
44564;SDS011;30275;51.822;-0.326;2023-01-04T11:23:32;16.07;;;4.67;;
44564;SDS011;30275;51.822;-0.326;2023-01-04T11:25:59;15.38;;;3.33;;
44564;SDS011;30275;51.822;-0.326;2023-01-04T11:39:24;21.00;;;4.72;;
44564;SDS011;30275;51.822;-0.326;2023-01-04T11:41:54;16.73;;;3.90;;
44564;SDS011;30275;51.822;-0.326;2023-01-04T11:44:22;19.88;;;4.05;;
44564;SDS011;30275;51.822;-0.326;2023-01-04T11:47:34;16.25;;;4.13;;
44564;SDS011;30275;51.822;-0.326;2023-01-04T11:49:42;15.98;;;4.20;;
44564;SDS011;30275;51.822;-0.326;2023-01-04T11:52:26;14.80;;;3.53;;
44564;SDS011;30275;51.822;-0.326;2023-01-04T11:54:52;25.67;;;5.88;;
44564;SDS011;30275;51.822;-0.326;2023-01-04T11:57:18;12.25;;;3.47;;
44564;SDS011;30275;51.822;-0.326;2023-01-04T11:59:44;21.05;;;4.57;;
44564;SDS011;30275;51.822;-0.326;2023-01-04T12:02:30;14.43;;;3.70;;
44564;SDS011;30275;51.822;-0.326;2023-01-04T12:04:56;9.40;;;3.25;;
44564;SDS011;30275;51.822;-0.326;2023-01-04T12:07:29;8.18;;;2.58;;
44564;SDS011;30275;51.822;-0.326;2023-01-04T12:10:00;14.00;;;2.90;;
44564;SDS011;30275;51.822;-0.326;2023-01-04T12:12:39;22.10;;;4.68;;
44564;SDS011;30275;51.822;-0.326;2023-01-04T12:15:12;13.00;;;3.60;;
44564;SDS011;30275;51.822;-0.326;2023-01-04T12:20:16;14.50;;;4.47;;
44564;SDS011;30275;51.822;-0.326;2023-01-04T12:22:43;16.60;;;3.38;;
44564;SDS011;30275;51.822;-0.326;2023-01-04T12:28:02;24.33;;;3.92;;
44564;SDS011;30275;51.822;-0.326;2023-01-04T12:32:57;17.63;;;4.53;;
44564;SDS011;30275;51.822;-0.326;2023-01-04T12:38:08;19.13;;;3.25;;
44564;SDS011;30275;51.822;-0.326;2023-01-04T12:45:39;16.90;;;3.22;;
44564;SDS011;30275;51.822;-0.326;2023-01-04T12:48:51;13.98;;;4.18;;
44564;SDS011;30275;51.822;-0.326;2023-01-04T12:51:20;14.40;;;3.92;;
44564;SDS011;30275;51.822;-0.326;2023-01-04T12:53:51;16.60;;;3.85;;
44564;SDS011;30275;51.822;-0.326;2023-01-04T12:56:17;21.23;;;5.05;;
44564;SDS011;30275;51.822;-0.326;2023-01-04T13:02:07;12.25;;;2.78;;
44564;SDS011;30275;51.822;-0.326;2023-01-04T13:04:40;14.38;;;3.25;;
44564;SDS011;30275;51.822;-0.326;2023-01-04T13:07:13;17.08;;;3.28;;
44564;SDS011;30275;51.822;-0.326;2023-01-04T13:09:45;11.43;;;3.30;;
44564;SDS011;30275;51.822;-0.326;2023-01-04T13:12:20;17.88;;;3.75;;
44564;SDS011;30275;51.822;-0.326;2023-01-04T13:14:51;15.55;;;3.22;;
44564;SDS011;30275;51.822;-0.326;2023-01-04T13:17:19;16.15;;;3.63;;
44564;SDS011;30275;51.822;-0.326;2023-01-04T13:19:46;18.45;;;3.78;;
44564;SDS011;30275;51.822;-0.326;2023-01-04T13:22:16;16.85;;;3.65;;
44564;SDS011;30275;51.822;-0.326;2023-01-04T13:24:43;17.48;;;3.95;;
44564;SDS011;30275;51.822;-0.326;2023-01-04T13:27:14;17.88;;;5.85;;
44564;SDS011;30275;51.822;-0.326;2023-01-04T13:29:41;17.92;;;4.00;;
44564;SDS011;30275;51.822;-0.326;2023-01-04T13:32:15;21.58;;;5.43;;
44564;SDS011;30275;51.822;-0.326;2023-01-04T13:37:31;19.67;;;5.32;;
44564;SDS011;30275;51.822;-0.326;2023-01-04T13:40:22;13.32;;;3.92;;
44564;SDS011;30275;51.822;-0.326;2023-01-04T13:48:39;13.77;;;3.27;;
44564;SDS011;30275;51.822;-0.326;2023-01-04T13:51:20;13.32;;;3.33;;
44564;SDS011;30275;51.822;-0.326;2023-01-04T13:53:55;16.88;;;3.60;;
44564;SDS011;30275;51.822;-0.326;2023-01-04T13:56:24;11.65;;;3.08;;
44564;SDS011;30275;51.822;-0.326;2023-01-04T13:58:51;12.68;;;3.20;;
44564;SDS011;30275;51.822;-0.326;2023-01-04T14:03:49;21.25;;;3.30;;
44564;SDS011;30275;51.822;-0.326;2023-01-04T14:06:20;9.60;;;2.60;;
44564;SDS011;30275;51.822;-0.326;2023-01-04T14:08:49;17.73;;;2.90;;
44564;SDS011;30275;51.822;-0.326;2023-01-04T14:11:23;11.10;;;2.90;;
44564;SDS011;30275;51.822;-0.326;2023-01-04T14:19:48;18.15;;;3.95;;
44564;SDS011;30275;51.822;-0.326;2023-01-04T14:24:57;15.88;;;3.50;;
44564;SDS011;30275;51.822;-0.326;2023-01-04T14:27:34;13.85;;;3.40;;
44564;SDS011;30275;51.822;-0.326;2023-01-04T14:33:07;14.93;;;3.70;;
44564;SDS011;30275;51.822;-0.326;2023-01-04T14:35:42;22.73;;;4.20;;
44564;SDS011;30275;51.822;-0.326;2023-01-04T14:38:13;12.05;;;3.25;;
44564;SDS011;30275;51.822;-0.326;2023-01-04T14:40:41;15.52;;;4.05;;
44564;SDS011;30275;51.822;-0.326;2023-01-04T14:46:09;18.80;;;3.70;;
44564;SDS011;30275;51.822;-0.326;2023-01-04T14:48:35;18.77;;;4.80;;
44564;SDS011;30275;51.822;-0.326;2023-01-04T14:51:00;12.38;;;3.30;;
44564;SDS011;30275;51.822;-0.326;2023-01-04T14:53:28;20.38;;;4.28;;
44564;SDS011;30275;51.822;-0.326;2023-01-04T14:55:53;18.45;;;3.88;;
44564;SDS011;30275;51.822;-0.326;2023-01-04T14:58:19;20.15;;;3.70;;
44564;SDS011;30275;51.822;-0.326;2023-01-04T15:00:45;19.90;;;4.55;;
44564;SDS011;30275;51.822;-0.326;2023-01-04T15:03:11;12.73;;;3.28;;
44564;SDS011;30275;51.822;-0.326;2023-01-04T15:05:36;21.70;;;4.72;;
44564;SDS011;30275;51.822;-0.326;2023-01-04T15:08:10;19.38;;;3.80;;
44564;SDS011;30275;51.822;-0.326;2023-01-04T15:10:36;23.42;;;4.30;;
44564;SDS011;30275;51.822;-0.326;2023-01-04T15:13:02;16.60;;;3.78;;
44564;SDS011;30275;51.822;-0.326;2023-01-04T15:15:28;18.70;;;3.90;;
44564;SDS011;30275;51.822;-0.326;2023-01-04T15:17:54;18.67;;;4.10;;
44564;SDS011;30275;51.822;-0.326;2023-01-04T15:20:20;18.00;;;5.10;;
44564;SDS011;30275;51.822;-0.326;2023-01-04T15:22:45;24.40;;;4.70;;
44564;SDS011;30275;51.822;-0.326;2023-01-04T15:25:11;15.60;;;4.70;;
44564;SDS011;30275;51.822;-0.326;2023-01-04T15:27:37;15.80;;;4.10;;
44564;SDS011;30275;51.822;-0.326;2023-01-04T15:30:02;10.95;;;3.65;;
44564;SDS011;30275;51.822;-0.326;2023-01-04T15:32:30;13.13;;;3.63;;
44564;SDS011;30275;51.822;-0.326;2023-01-04T15:34:56;25.30;;;4.63;;
44564;SDS011;30275;51.822;-0.326;2023-01-04T15:37:22;12.27;;;3.83;;
44564;SDS011;30275;51.822;-0.326;2023-01-04T15:39:47;18.02;;;4.45;;
44564;SDS011;30275;51.822;-0.326;2023-01-04T15:42:13;16.13;;;4.00;;
44564;SDS011;30275;51.822;-0.326;2023-01-04T15:44:57;22.67;;;4.72;;
44564;SDS011;30275;51.822;-0.326;2023-01-04T15:47:23;18.02;;;3.88;;
44564;SDS011;30275;51.822;-0.326;2023-01-04T15:49:48;17.38;;;4.03;;
44564;SDS011;30275;51.822;-0.326;2023-01-04T15:52:14;17.70;;;4.75;;
44564;SDS011;30275;51.822;-0.326;2023-01-04T15:54:40;18.20;;;4.35;;
44564;SDS011;30275;51.822;-0.326;2023-01-04T15:57:06;21.80;;;4.93;;
44564;SDS011;30275;51.822;-0.326;2023-01-04T15:59:32;17.73;;;4.97;;
44564;SDS011;30275;51.822;-0.326;2023-01-04T16:01:57;14.70;;;3.13;;
44564;SDS011;30275;51.822;-0.326;2023-01-04T16:04:23;24.05;;;4.95;;
44564;SDS011;30275;51.822;-0.326;2023-01-04T16:06:49;23.02;;;4.57;;
44564;SDS011;30275;51.822;-0.326;2023-01-04T16:09:15;18.50;;;4.60;;
44564;SDS011;30275;51.822;-0.326;2023-01-04T16:11:40;26.30;;;6.13;;
44564;SDS011;30275;51.822;-0.326;2023-01-04T16:14:26;16.70;;;4.43;;
44564;SDS011;30275;51.822;-0.326;2023-01-04T16:16:52;22.08;;;4.57;;
44564;SDS011;30275;51.822;-0.326;2023-01-04T16:19:18;15.55;;;5.60;;
44564;SDS011;30275;51.822;-0.326;2023-01-04T16:21:44;23.27;;;5.53;;
44564;SDS011;30275;51.822;-0.326;2023-01-04T16:24:09;20.15;;;5.90;;
44564;SDS011;30275;51.822;-0.326;2023-01-04T16:26:35;26.92;;;5.93;;
44564;SDS011;30275;51.822;-0.326;2023-01-04T16:29:01;22.30;;;5.80;;
44564;SDS011;30275;51.822;-0.326;2023-01-04T16:31:31;17.83;;;4.10;;
44564;SDS011;30275;51.822;-0.326;2023-01-04T16:33:57;24.70;;;6.85;;